Historyczne dane pomiarowe

Dodano dane terminowe – wersja testowa.

Dane z okresu 1951-2019

Wersja bazy: 1.34 [2019-03-16, lista zmian], aktualizacja planowana na 2019-04-15

Dane meteo z obszaru Polski uzyskane na podstawie danych udostępnionych przez Instytut Meteorologii i Gospodarki Wodnej – Państwowy Instytut Badawczy.

 

Wybierz Datę:    

       

TemperaturaWilgotnośćWiatrCiśnienieOpadyŚniegCzas trwania zjawisk
 Stacja t tx tn tng RH VA  wxwx mslp ppp RRR   cm mm wxwxwxwxwxwxwx
1983-08-14 15.0 20.1 8.7 6.3 74.5- 2.3 3.7---- 0.0------------
1983-08-13 14.5 19.1 13.0 13.1 87.0- 4.3 6.3---- 0.0------------
1983-08-12 18.9 25.3 13.0 10.8 79.3- 3.0 2.3---- 3.0------------
1983-08-11 21.4 28.3 13.8 12.1 69.3- 1.3 0.3---- 0.0------------
1983-08-10 21.4 28.1 13.1 11.4 69.3- 0.7 1.0---- 0.0------------
1983-08-09 20.2 26.8 12.0 10.8 75.0- 2.7 1.0---- 0.0------------
1983-08-08 20.4 26.9 15.0 12.0 80.0- 5.7 2.0---- 0.3------------
1983-08-07 19.1 25.1 13.0 6.5 78.5- 3.7 1.0---- 0.0------------
1983-08-06 16.2 21.4 11.0 9.5 82.8- 6.3 1.7---- 0.0------------
1983-08-05 13.7 18.2 10.2 11.6 86.0- 7.0 1.3---- 0.0------------
1983-08-04 14.3 15.1 13.9 13.8100.0- 8.0 1.3---- 2.3------------
1983-08-03 14.8 20.7 14.0 14.6100.0- 8.0 5.0---- 16.7------------
1983-08-02 20.4 28.1 19.0 14.5 75.5- 6.3 1.7---- 6.3------------
1983-08-01 22.1 31.9 11.9 7.9 53.8- 3.0 5.7---- 0.0------------
1983-07-31 17.8 25.3 9.3 6.2 68.8- 0.3 0.3---- 0.0------------
1983-07-30 16.3 17.7 14.0 14.1 80.5- 6.3 5.7---- 0.0------------
1983-07-29 17.0 22.9 12.3 13.2 85.3- 5.7 3.3---- 0.7------------
1983-07-28 20.9 31.1 17.2 15.2 80.5- 3.7 2.7---- 0.0------------
1983-07-27 24.8 33.2 15.0 10.4 57.0- 3.3 0.7---- 0.0------------
1983-07-26 21.3 30.6 11.6 10.6 69.5- 1.3 1.0---- 0.0------------
1983-07-25 18.7 26.1 10.6 10.0 73.0- 0.7 2.0---- 0.0------------
1983-07-24 16.8 21.9 14.6 13.3 89.0- 8.0 0.7---- 1.2------------
1983-07-23 18.6 23.7 11.6 10.1 79.3- 3.3 6.0---- 0.0------------
1983-07-22 15.4 22.1 9.9 7.4 83.8- 6.3 2.7---- 0.0------------
1983-07-21 13.7 19.1 7.0 7.5 77.0- 2.7 4.3---- 0.0------------
1983-07-20 12.0 19.6 11.0 9.7 90.5- 5.7 4.0---- 2.8------------
1983-07-19 20.0 25.3 17.6 12.8 82.5- 6.0 1.7---- 0.7------------
1983-07-18 22.6 33.1 13.0 10.7 72.8- 6.0 2.3---- 4.6------------
1983-07-17 18.2 24.1 11.9 9.5 79.5- 1.0 0.7---- 0.0------------
1983-07-16 21.0 26.3 17.0 15.0 81.8- 4.0 3.7---- 10.8------------
1983-07-15 20.2 27.1 12.5 10.1 63.5- 1.7 1.7---- 0.0------------
1983-07-14 20.9 26.1 15.7 15.0 69.5- 3.3 5.3---- 0.0------------
1983-07-13 20.9 27.4 14.8 12.3 90.3- 3.3 4.7---- 0.0------------
1983-07-12 24.6 31.1 17.8 15.5 66.0- 4.7 6.0---- 0.0------------
1983-07-11 23.2 30.3 14.2 13.8 64.0- 4.0 1.3---- 0.0------------
1983-07-10 23.4 31.1 13.0 10.1 54.0- 0.3 0.7---- 0.0------------
1983-07-09 21.1 29.6 10.5 6.8 58.3- 1.7 2.7---- 0.0------------
1983-07-08 19.4 27.6 10.0 6.2 59.3- 0.0 1.0---- 0.0------------
1983-07-07 21.0 27.9 14.0 11.2 55.5- 0.3 3.3---- 0.0------------
1983-07-06 21.8 29.7 12.8 10.3 62.5- 0.3 1.0---- 0.0------------
1983-07-05 19.0 26.1 10.4 10.2 70.5- 0.0 0.3---- 0.0------------
1983-07-04 18.8 25.2 13.6 11.3 68.8- 2.0 1.0---- 0.0------------
1983-07-03 18.4 24.4 10.4 8.0 65.8- 2.7 0.7---- 0.0------------
1983-07-02 17.2 22.1 11.8 11.1 67.8- 2.0 1.3---- 0.0------------
1983-07-01 19.4 26.1 12.6 11.1 69.8- 4.7 4.7---- 0.8------------
1983-06-30 19.4 24.1 12.4 10.0 66.0- 4.3 4.7---- 0.0------------
1983-06-29 13.9 18.6 7.4 6.4 69.5- 4.0 2.3---- 0.0------------
1983-06-28 14.7 17.7 12.5 11.4 71.5- 5.3 1.7---- 0.0------------
1983-06-27 17.9 24.1 13.9 11.0 88.3- 6.7 1.7---- 3.3------------
1983-06-26 18.3 25.1 8.7 5.2 59.5- 1.0 1.0---- 7.9------------
1983-06-25 20.1 26.1 11.7 8.3 63.0- 5.7 1.7---- 0.0------------
1983-06-24 20.3 28.1 10.3 4.6 48.5- 0.0 1.3---- 0.0------------
1983-06-23 16.4 23.6 5.7 1.3 54.5- 0.0 0.0---- 0.0------------
1983-06-22 14.1 20.4 6.9 4.9 57.0- 0.0 2.3---- 0.0------------
1983-06-21 17.8 26.8 10.4 7.3 62.0- 0.0 3.3---- 0.0------------
1983-06-20 18.3 27.5 7.5 5.4 54.0- 0.0 2.3---- 0.0------------
1983-06-19 15.6 22.8 8.5 8.5 62.0- 3.0 5.7---- 0.0------------
1983-06-18 13.6 16.1 10.4 10.8 85.0- 8.0 2.7---- 0.0------------
1983-06-17 13.4 17.4 8.3 5.5 78.5- 7.0 2.7---- 0.0------------
1983-06-16 13.4 18.9 8.1 5.4 69.3- 3.0 10.7---- 0.0------------
354.9 ms

 

Źródłem pochodzenia danych jest Instytut Meteorologii i Gospodarki Wodnej – Państwowy Instytut Badawczy. Dane Instytutu Meteorologii i Gospodarki Wodnej – Państwowego Instytutu Badawczego zostały przetworzone.

Dane źródłowe można odnaleźć na stronie https://dane.imgw.pl